createdAt,value
2022-10-07T00:01:51.386Z,31.11
2022-10-07T00:03:55.040Z,31.98
2022-10-07T00:06:10.320Z,31.77
2022-10-07T00:08:14.700Z,32.03
2022-10-07T00:10:20.987Z,31.74
2022-10-07T00:12:25.390Z,32.48
2022-10-07T00:14:29.578Z,33.40
2022-10-07T00:16:40.004Z,34.30
2022-10-07T00:18:44.711Z,33.70
2022-10-07T00:20:51.131Z,34.40
2022-10-07T00:22:54.944Z,34.56
2022-10-07T00:25:02.336Z,34.93
2022-10-07T00:27:06.542Z,36.57
2022-10-07T00:29:10.808Z,35.96
2022-10-07T00:31:16.704Z,37.12
2022-10-07T00:33:20.688Z,37.48
2022-10-07T00:35:24.824Z,37.94
2022-10-07T00:37:28.656Z,39.22
2022-10-07T00:39:32.443Z,39.88
2022-10-07T00:41:41.274Z,40.77
2022-10-07T00:43:44.848Z,41.49
2022-10-07T00:45:48.653Z,42.20
2022-10-07T00:47:52.843Z,43.82
2022-10-07T00:50:03.276Z,44.43
2022-10-07T00:52:11.435Z,44.59
2022-10-07T00:54:17.328Z,45.54
2022-10-07T00:56:22.749Z,45.61
2022-10-07T00:58:27.449Z,45.96
2022-10-07T01:00:34.057Z,47.19
2022-10-07T01:02:38.260Z,48.35
2022-10-07T01:04:44.450Z,49.26
2022-10-07T01:06:52.378Z,51.27
2022-10-07T01:08:58.756Z,52.98
2022-10-07T01:11:29.918Z,54.40
2022-10-07T01:13:41.123Z,55.15
2022-10-07T01:15:53.282Z,56.03
2022-10-07T01:18:06.577Z,55.40
2022-10-07T01:20:28.219Z,56.55
2022-10-07T01:22:52.702Z,57.19
2022-10-07T01:24:59.044Z,58.32
2022-10-07T01:27:06.080Z,58.81
2022-10-07T01:29:14.543Z,59.05
2022-10-07T01:31:22.327Z,60.19
2022-10-07T01:33:29.061Z,61.26
2022-10-07T01:35:36.416Z,57.34
2022-10-07T01:37:42.930Z,59.29
2022-10-07T01:39:50.558Z,59.29
2022-10-07T01:41:56.895Z,59.33
2022-10-07T01:44:02.147Z,58.87
2022-10-07T01:46:07.779Z,60.05
2022-10-07T01:48:12.479Z,61.98
2022-10-07T01:50:17.325Z,62.64
2022-10-07T01:52:42.354Z,64.42
2022-10-07T01:55:04.423Z,65.72
2022-10-07T01:57:08.448Z,65.25
2022-10-07T01:59:45.133Z,65.92
2022-10-07T02:02:01.333Z,67.87
2022-10-07T02:04:22.620Z,69.36
2022-10-07T02:06:34.642Z,68.57
2022-10-07T02:08:46.908Z,68.34
2022-10-07T02:10:59.693Z,67.22
2022-10-07T02:13:10.141Z,68.24
2022-10-07T02:15:32.273Z,68.25
2022-10-07T02:17:38.264Z,67.25
2022-10-07T02:19:46.073Z,67.63
2022-10-07T02:21:51.672Z,67.26
2022-10-07T02:23:58.331Z,68.32
2022-10-07T02:26:04.895Z,67.99
2022-10-07T02:28:11.366Z,67.50
2022-10-07T02:30:17.866Z,68.19
2022-10-07T02:32:24.978Z,68.31
2022-10-07T02:34:29.609Z,69.03
2022-10-07T02:36:36.007Z,70.10
2022-10-07T02:38:41.818Z,70.73
2022-10-07T02:40:56.771Z,71.62
2022-10-07T02:43:03.294Z,72.89
2022-10-07T02:45:17.244Z,73.94
2022-10-07T02:47:30.020Z,71.34
2022-10-07T02:49:39.622Z,72.08
2022-10-07T02:51:51.576Z,71.82
2022-10-07T02:53:56.130Z,73.64
2022-10-07T02:56:02.964Z,74.22
2022-10-07T02:58:09.465Z,74.91
2022-10-07T03:00:15.335Z,74.66
2022-10-07T03:02:27.044Z,75.06
2022-10-07T03:04:30.464Z,75.22
2022-10-07T03:06:36.523Z,75.81
2022-10-07T03:08:46.003Z,76.58
2022-10-07T03:10:50.093Z,77.50
2022-10-07T03:12:54.974Z,77.43
2022-10-07T03:14:59.475Z,77.68
2022-10-07T03:17:03.788Z,78.27
2022-10-07T03:19:07.662Z,79.43
2022-10-07T03:21:18.847Z,80.43
2022-10-07T03:23:35.928Z,81.01
2022-10-07T03:25:39.670Z,81.31
2022-10-07T03:27:44.224Z,81.89
2022-10-07T03:29:51.389Z,82.00
2022-10-07T03:31:56.438Z,80.71
2022-10-07T03:34:00.824Z,79.68
2022-10-07T03:36:06.205Z,79.76
2022-10-07T03:38:10.746Z,80.72
2022-10-07T03:40:15.559Z,80.95
2022-10-07T03:42:19.408Z,81.36
2022-10-07T03:44:23.950Z,81.24
2022-10-07T03:46:29.722Z,81.89
2022-10-07T03:48:33.686Z,82.56
2022-10-07T03:50:39.035Z,82.41
2022-10-07T03:52:43.032Z,83.17
2022-10-07T03:54:46.785Z,83.46
2022-10-07T03:56:56.085Z,83.82
2022-10-07T03:59:00.258Z,84.08
2022-10-07T04:01:11.658Z,83.69
2022-10-07T04:03:20.731Z,83.82
2022-10-07T04:05:26.282Z,84.42
2022-10-07T04:07:29.976Z,84.87
2022-10-07T04:09:33.925Z,85.17
2022-10-07T04:11:41.433Z,83.80
2022-10-07T04:13:46.402Z,83.40
2022-10-07T04:15:50.181Z,82.38
2022-10-07T04:17:57.265Z,83.72
2022-10-07T04:20:01.946Z,83.97
2022-10-07T04:22:08.887Z,83.03
2022-10-07T04:24:12.890Z,82.90
2022-10-07T04:26:16.643Z,81.18
2022-10-07T04:28:27.127Z,81.10
2022-10-07T04:30:40.884Z,82.17
2022-10-07T04:32:44.596Z,80.63
2022-10-07T04:34:48.174Z,80.78
2022-10-07T04:36:55.036Z,79.66
2022-10-07T04:38:58.717Z,77.19
2022-10-07T04:41:08.133Z,76.27
2022-10-07T04:43:20.616Z,74.93
2022-10-07T04:45:29.217Z,74.88
2022-10-07T04:47:33.083Z,74.14
2022-10-07T04:49:36.639Z,74.01
2022-10-07T04:51:43.537Z,73.22
2022-10-07T04:53:56.697Z,75.46
2022-10-07T04:56:16.542Z,73.72
2022-10-07T04:58:21.021Z,72.80
2022-10-07T05:00:25.898Z,72.21
2022-10-07T05:02:29.918Z,72.93
2022-10-07T05:04:33.670Z,73.90
2022-10-07T05:06:38.820Z,73.37
2022-10-07T05:08:45.244Z,74.84
2022-10-07T05:10:50.105Z,72.88
2022-10-07T05:12:56.066Z,72.10
2022-10-07T05:15:01.551Z,72.19
2022-10-07T05:17:05.460Z,73.02
2022-10-07T05:19:13.993Z,73.24
2022-10-07T05:21:17.407Z,74.74
2022-10-07T05:23:28.053Z,75.27
2022-10-07T05:25:35.077Z,74.91
2022-10-07T05:27:40.115Z,75.41
2022-10-07T05:29:46.647Z,76.74
2022-10-07T05:31:53.456Z,75.89
2022-10-07T05:34:01.054Z,76.16
2022-10-07T05:36:17.638Z,76.95
2022-10-07T05:38:24.038Z,76.75
2022-10-07T05:40:27.719Z,77.78
2022-10-07T05:42:31.709Z,77.60
2022-10-07T05:47:03.361Z,77.02
2022-10-07T05:49:08.259Z,76.50
2022-10-07T05:51:15.245Z,75.33
2022-10-07T05:53:19.155Z,75.06
2022-10-07T05:55:22.806Z,75.11
2022-10-07T05:57:29.132Z,74.86
2022-10-07T05:59:32.882Z,75.16
2022-10-07T06:01:37.312Z,75.14
2022-10-07T06:03:50.039Z,74.21
2022-10-07T06:05:54.284Z,74.29
2022-10-07T06:07:59.938Z,73.37
2022-10-07T06:10:21.563Z,73.65
2022-10-07T06:12:44.099Z,73.21
2022-10-07T06:14:50.990Z,72.39
2022-10-07T06:16:54.700Z,71.99
2022-10-07T06:18:58.876Z,72.00
2022-10-07T06:21:03.858Z,72.41
2022-10-07T06:23:08.387Z,72.04
2022-10-07T06:25:12.205Z,72.34
2022-10-07T06:27:15.622Z,72.70
2022-10-07T06:29:20.394Z,73.04
2022-10-07T06:31:26.203Z,73.87
2022-10-07T06:33:36.057Z,74.54
2022-10-07T06:35:39.752Z,74.69
2022-10-07T06:37:44.372Z,75.09
2022-10-07T06:39:48.212Z,74.82
2022-10-07T06:41:55.341Z,75.01
2022-10-07T06:44:19.380Z,74.81
2022-10-07T06:46:23.190Z,74.36
2022-10-07T06:48:28.531Z,74.33
2022-10-07T06:50:33.925Z,74.00
2022-10-07T06:52:41.260Z,74.00
2022-10-07T06:54:47.136Z,74.27
2022-10-07T06:56:51.005Z,74.21
2022-10-07T06:58:54.964Z,74.23
2022-10-07T07:01:09.608Z,74.92
2022-10-07T07:03:13.251Z,74.88
2022-10-07T07:05:17.167Z,75.06
2022-10-07T07:07:25.082Z,75.57
2022-10-07T07:09:29.175Z,75.83
2022-10-07T07:11:39.022Z,76.28
2022-10-07T07:13:54.806Z,76.86
2022-10-07T07:16:00.946Z,77.24
2022-10-07T07:18:10.858Z,77.61
2022-10-07T07:20:15.595Z,78.26
2022-10-07T07:22:19.601Z,78.47
2022-10-07T07:24:25.110Z,78.30
2022-10-07T07:26:30.650Z,78.84
2022-10-07T07:28:34.243Z,78.93
2022-10-07T07:30:40.020Z,79.35
2022-10-07T07:32:44.855Z,79.81
2022-10-07T07:34:48.642Z,79.78
2022-10-07T07:36:57.038Z,79.60
2022-10-07T07:39:08.007Z,80.51
2022-10-07T07:41:12.161Z,79.84
2022-10-07T07:43:18.804Z,79.98
2022-10-07T07:45:23.874Z,80.28
2022-10-07T07:47:29.089Z,80.26
2022-10-07T07:49:36.932Z,79.37
2022-10-07T07:51:43.576Z,79.82
2022-10-07T07:53:51.558Z,79.46
2022-10-07T07:55:58.822Z,78.98
2022-10-07T07:58:06.361Z,78.80
2022-10-07T08:00:12.307Z,78.46
2022-10-07T08:02:28.150Z,78.38
2022-10-07T08:04:32.339Z,78.45
2022-10-07T08:06:36.510Z,78.44
2022-10-07T08:08:44.663Z,78.74
2022-10-07T08:10:52.127Z,78.23
2022-10-07T08:12:56.602Z,78.36
2022-10-07T08:15:03.841Z,78.74
2022-10-07T08:17:07.277Z,78.65
2022-10-07T08:19:13.292Z,78.93
2022-10-07T08:21:21.111Z,79.32
2022-10-07T08:23:30.297Z,79.47
2022-10-07T08:25:34.515Z,79.66
2022-10-07T08:27:40.694Z,79.66
2022-10-07T08:29:44.401Z,80.00
2022-10-07T08:31:48.412Z,80.19
2022-10-07T08:33:52.355Z,80.50
2022-10-07T08:36:00.111Z,80.72
2022-10-07T08:38:04.187Z,81.16
2022-10-07T08:40:07.837Z,81.23
2022-10-07T08:42:23.889Z,82.28
2022-10-07T08:44:53.431Z,82.39
2022-10-07T08:47:23.267Z,82.98
2022-10-07T08:49:34.417Z,83.46
2022-10-07T08:51:42.600Z,84.14
2022-10-07T08:53:48.301Z,84.51
2022-10-07T08:55:51.916Z,84.76
2022-10-07T08:58:06.435Z,86.12
2022-10-07T09:00:12.028Z,86.54
2022-10-07T09:02:15.745Z,86.85
2022-10-07T09:04:25.608Z,87.68
2022-10-07T09:06:33.109Z,88.07
2022-10-07T09:08:42.158Z,88.39
2022-10-07T09:10:51.188Z,89.39
2022-10-07T09:13:24.311Z,89.87
2022-10-07T09:15:56.906Z,90.27
2022-10-07T09:18:11.892Z,91.37
2022-10-07T09:20:20.234Z,92.04
2022-10-07T09:22:30.053Z,92.04
2022-10-07T09:24:35.623Z,92.77
2022-10-07T09:26:39.119Z,93.38
2022-10-07T09:28:42.690Z,93.99
2022-10-07T09:30:46.120Z,95.00
2022-10-07T09:32:51.513Z,95.20
2022-10-07T09:34:55.055Z,95.60
2022-10-07T09:37:16.742Z,95.75
2022-10-07T09:39:27.462Z,96.86
2022-10-07T09:41:33.196Z,97.80
2022-10-07T09:43:37.540Z,97.66
2022-10-07T09:45:46.199Z,98.53
2022-10-07T09:48:00.321Z,98.70
2022-10-07T09:50:04.370Z,98.96
2022-10-07T09:52:24.261Z,99.57
2022-10-07T09:54:28.850Z,100.00
2022-10-07T09:56:40.089Z,100.00
2022-10-07T09:58:43.728Z,100.00
2022-10-07T10:00:52.375Z,100.00
2022-10-07T10:03:05.841Z,100.00
2022-10-07T10:05:22.033Z,100.00
2022-10-07T10:07:30.465Z,100.00
2022-10-07T10:09:36.070Z,100.00
2022-10-07T10:11:39.951Z,100.00
2022-10-07T10:13:43.773Z,100.00
2022-10-07T10:15:47.266Z,100.00
2022-10-07T10:17:51.091Z,100.00
2022-10-07T10:19:54.736Z,100.00
2022-10-07T10:21:59.042Z,100.00
2022-10-07T10:24:42.421Z,100.00
2022-10-07T10:26:45.774Z,100.00
2022-10-07T10:29:00.178Z,100.00
2022-10-07T10:31:09.521Z,100.00
2022-10-07T10:33:13.219Z,100.00
2022-10-07T10:35:21.169Z,100.00
2022-10-07T10:37:34.234Z,100.00
2022-10-07T10:39:47.884Z,100.00
2022-10-07T10:41:53.405Z,100.00
2022-10-07T10:44:09.764Z,100.00
2022-10-07T10:46:25.202Z,100.00
2022-10-07T10:48:34.593Z,100.00
2022-10-07T10:50:52.429Z,100.00
2022-10-07T10:52:58.729Z,100.00
2022-10-07T10:55:23.707Z,100.00
2022-10-07T10:57:45.421Z,100.00
2022-10-07T11:00:03.080Z,100.00
2022-10-07T11:02:24.877Z,100.00
2022-10-07T11:04:51.235Z,100.00
2022-10-07T11:06:59.694Z,100.00
2022-10-07T11:09:03.929Z,100.00
2022-10-07T11:11:09.806Z,100.00
2022-10-07T11:13:21.675Z,100.00
2022-10-07T11:15:25.257Z,100.00
2022-10-07T11:17:32.381Z,100.00
2022-10-07T11:19:52.444Z,100.00
2022-10-07T11:21:57.896Z,100.00
2022-10-07T11:24:11.344Z,100.00
2022-10-07T11:26:26.110Z,100.00
2022-10-07T11:28:30.994Z,100.00
2022-10-07T11:30:39.007Z,100.00
2022-10-07T11:32:45.620Z,100.00
2022-10-07T11:35:15.451Z,100.00
2022-10-07T11:37:26.151Z,100.00
2022-10-07T11:39:30.130Z,100.00
2022-10-07T11:41:35.636Z,100.00
2022-10-07T11:43:50.565Z,100.00
2022-10-07T11:45:56.625Z,100.00
2022-10-07T11:48:06.872Z,100.00
2022-10-07T11:50:25.299Z,100.00
2022-10-07T11:52:43.436Z,100.00
2022-10-07T11:54:57.457Z,100.00
2022-10-07T11:57:01.834Z,100.00
2022-10-07T11:59:09.663Z,100.00
2022-10-07T12:01:31.868Z,100.00
2022-10-07T12:03:36.052Z,100.00
2022-10-07T12:05:39.984Z,100.00
2022-10-07T12:07:44.197Z,100.00
2022-10-07T12:10:04.562Z,100.00
2022-10-07T12:12:14.928Z,100.00
2022-10-07T12:14:31.459Z,100.00
2022-10-07T12:16:37.836Z,100.00
2022-10-07T12:18:41.374Z,100.00
2022-10-07T12:20:46.477Z,100.00
2022-10-07T12:23:10.765Z,100.00
2022-10-07T12:25:30.178Z,100.00
2022-10-07T12:27:34.900Z,100.00
2022-10-07T12:30:04.003Z,100.00
2022-10-07T12:32:27.510Z,100.00
2022-10-07T12:34:42.309Z,100.00
2022-10-07T12:36:45.975Z,100.00
2022-10-07T12:38:59.433Z,100.00
2022-10-07T12:41:08.350Z,100.00
2022-10-07T12:43:30.263Z,100.00
2022-10-07T12:45:38.046Z,100.00
2022-10-07T12:47:42.937Z,100.00
2022-10-07T12:49:51.581Z,100.00
2022-10-07T12:51:58.632Z,100.00
2022-10-07T12:54:04.230Z,100.00
2022-10-07T12:56:07.792Z,100.00
2022-10-07T12:58:49.356Z,100.00
2022-10-07T13:01:06.078Z,100.00
2022-10-07T13:03:23.242Z,100.00
2022-10-07T13:05:57.444Z,100.00
2022-10-07T13:08:19.375Z,100.00
2022-10-07T13:10:42.916Z,100.00
2022-10-07T13:12:56.125Z,100.00
2022-10-07T13:15:09.218Z,100.00
2022-10-07T13:17:19.420Z,100.00
2022-10-07T13:19:31.373Z,100.00
2022-10-07T13:21:40.965Z,100.00
2022-10-07T13:23:51.123Z,100.00
2022-10-07T13:25:59.740Z,100.00
2022-10-07T13:28:03.368Z,100.00
2022-10-07T13:30:07.275Z,100.00
2022-10-07T13:32:18.282Z,100.00
2022-10-07T13:34:21.905Z,100.00
2022-10-07T13:36:34.331Z,100.00
2022-10-07T13:38:40.948Z,100.00
2022-10-07T13:40:44.512Z,100.00
2022-10-07T13:42:54.804Z,100.00
2022-10-07T13:45:03.239Z,100.00
2022-10-07T13:47:08.399Z,100.00
2022-10-07T13:49:22.338Z,100.00
2022-10-07T13:51:29.323Z,100.00
2022-10-07T13:53:36.937Z,100.00
2022-10-07T13:55:42.704Z,100.00
2022-10-07T13:57:46.802Z,100.00
2022-10-07T13:59:56.150Z,100.00
2022-10-07T14:01:59.771Z,100.00
2022-10-07T14:04:09.433Z,100.00
2022-10-07T14:06:32.911Z,100.00
2022-10-07T14:08:51.644Z,100.00
2022-10-07T14:11:05.836Z,100.00
2022-10-07T14:13:17.431Z,100.00
2022-10-07T14:15:23.311Z,99.95
2022-10-07T14:17:45.129Z,99.49
2022-10-07T14:19:53.662Z,98.57
2022-10-07T14:21:57.713Z,97.52
2022-10-07T14:24:08.530Z,96.73
2022-10-07T14:26:19.961Z,96.76
2022-10-07T14:28:26.404Z,97.29
2022-10-07T14:30:56.795Z,96.09
2022-10-07T14:33:38.845Z,96.40
2022-10-07T14:35:42.907Z,94.90
2022-10-07T14:37:47.117Z,93.51
2022-10-07T14:39:52.308Z,92.40
2022-10-07T14:41:55.768Z,91.64
2022-10-07T14:44:02.353Z,91.51
2022-10-07T14:46:09.801Z,89.74
2022-10-07T14:48:14.937Z,89.36
2022-10-07T14:50:20.681Z,89.12
2022-10-07T14:52:29.450Z,89.01
2022-10-07T14:54:34.050Z,88.06
2022-10-07T14:56:40.283Z,87.47
2022-10-07T14:58:44.158Z,86.07
2022-10-07T15:00:47.990Z,86.62
2022-10-07T15:02:51.920Z,85.69
2022-10-07T15:04:55.669Z,86.11
2022-10-07T15:07:02.469Z,86.25
2022-10-07T15:09:10.716Z,85.44
2022-10-07T15:11:21.796Z,84.83
2022-10-07T15:13:25.703Z,84.37
2022-10-07T15:15:29.275Z,84.83
2022-10-07T15:17:33.195Z,84.77
2022-10-07T15:19:36.836Z,84.05
2022-10-07T15:21:40.476Z,83.42
2022-10-07T15:23:43.811Z,81.98
2022-10-07T15:25:47.703Z,81.88
2022-10-07T15:27:51.693Z,80.70
2022-10-07T15:29:56.419Z,81.53
2022-10-07T15:32:00.198Z,80.80
2022-10-07T15:34:04.078Z,79.81
2022-10-07T15:36:08.034Z,78.82
2022-10-07T15:38:11.855Z,78.98
2022-10-07T15:40:15.661Z,79.06
2022-10-07T15:42:19.565Z,78.17
2022-10-07T15:44:23.745Z,76.53
2022-10-07T15:46:28.005Z,76.12
2022-10-07T15:48:34.451Z,75.89
2022-10-07T15:50:38.530Z,74.84
2022-10-07T15:52:43.750Z,74.52
2022-10-07T15:54:47.506Z,75.04
2022-10-07T15:56:56.564Z,74.13
2022-10-07T15:59:01.505Z,74.33
2022-10-07T16:01:10.469Z,73.40
2022-10-07T16:03:14.353Z,72.77
2022-10-07T16:05:18.468Z,73.21
2022-10-07T16:07:23.085Z,71.60
2022-10-07T16:09:26.863Z,71.53
2022-10-07T16:11:31.101Z,71.21
2022-10-07T16:13:44.648Z,71.33
2022-10-07T16:16:07.595Z,70.60
2022-10-07T16:18:11.313Z,69.01
2022-10-07T16:20:19.612Z,69.08
2022-10-07T16:22:25.514Z,69.60
2022-10-07T16:24:34.029Z,69.24
2022-10-07T16:26:38.470Z,67.82
2022-10-07T16:29:02.190Z,68.54
2022-10-07T16:31:06.168Z,68.56
2022-10-07T16:33:10.127Z,67.26
2022-10-07T16:35:13.707Z,66.57
2022-10-07T16:37:20.153Z,66.13
2022-10-07T16:39:23.912Z,64.77
2022-10-07T16:41:30.113Z,64.24
2022-10-07T16:43:35.652Z,64.21
2022-10-07T16:45:41.178Z,64.38
2022-10-07T16:47:45.415Z,62.23
2022-10-07T16:49:49.518Z,63.57
2022-10-07T16:51:54.019Z,61.33
2022-10-07T16:54:04.480Z,62.75
2022-10-07T16:56:08.039Z,60.89
2022-10-07T16:58:11.820Z,59.67
2022-10-07T17:00:15.659Z,59.00
2022-10-07T17:02:21.170Z,58.56
2022-10-07T17:04:25.648Z,58.50
2022-10-07T17:06:31.027Z,58.21
2022-10-07T17:08:41.074Z,58.67
2022-10-07T17:10:46.721Z,56.84
2022-10-07T17:12:51.027Z,56.66
2022-10-07T17:14:57.647Z,56.65
2022-10-07T17:17:01.846Z,56.78
2022-10-07T17:19:07.273Z,57.03
2022-10-07T17:21:13.774Z,55.44
2022-10-07T17:23:18.150Z,54.76
2022-10-07T17:25:21.547Z,54.12
2022-10-07T17:27:25.495Z,53.91
2022-10-07T17:29:30.794Z,53.00
2022-10-07T17:31:34.971Z,51.93
2022-10-07T17:33:42.393Z,52.31
2022-10-07T17:35:48.825Z,52.71
2022-10-07T17:37:52.675Z,51.55
2022-10-07T17:39:55.966Z,50.65
2022-10-07T17:41:59.763Z,52.47
2022-10-07T17:44:04.460Z,50.67
2022-10-07T17:46:12.631Z,51.08
2022-10-07T17:48:18.052Z,50.09
2022-10-07T17:50:25.091Z,50.33
2022-10-07T17:52:34.661Z,49.10
2022-10-07T17:54:40.198Z,48.58
2022-10-07T17:56:45.306Z,48.29
2022-10-07T17:58:50.147Z,47.72
2022-10-07T18:00:53.540Z,47.47
2022-10-07T18:02:57.374Z,46.77
2022-10-07T18:05:01.204Z,47.47
2022-10-07T18:07:04.941Z,47.37
2022-10-07T18:09:09.126Z,45.05
2022-10-07T18:11:12.919Z,45.91
2022-10-07T18:13:35.230Z,45.54
2022-10-07T18:15:38.882Z,46.72
2022-10-07T18:17:42.618Z,45.41
2022-10-07T18:19:46.564Z,45.49
2022-10-07T18:21:50.253Z,45.48
2022-10-07T18:23:56.777Z,44.07
2022-10-07T18:26:02.903Z,43.10
2022-10-07T18:28:08.415Z,42.51
2022-10-07T18:30:12.496Z,43.25
2022-10-07T18:32:16.238Z,42.24
2022-10-07T18:34:19.596Z,41.83
2022-10-07T18:36:25.228Z,41.69
2022-10-07T18:38:32.652Z,41.10
2022-10-07T18:40:39.805Z,41.39
2022-10-07T18:42:43.633Z,41.12
2022-10-07T18:44:48.638Z,41.41
2022-10-07T18:46:52.650Z,41.83
2022-10-07T18:48:56.631Z,42.30
2022-10-07T18:51:01.393Z,42.96
2022-10-07T18:53:05.255Z,41.57
2022-10-07T18:55:08.928Z,42.21
2022-10-07T18:57:21.948Z,41.84
2022-10-07T18:59:26.099Z,41.78
2022-10-07T19:01:31.075Z,40.54
2022-10-07T19:03:36.085Z,39.12
2022-10-07T19:05:42.847Z,40.03
2022-10-07T19:07:49.997Z,39.77
2022-10-07T19:09:54.171Z,40.23
2022-10-07T19:11:58.355Z,39.82
2022-10-07T19:14:02.707Z,39.80
2022-10-07T19:16:07.295Z,40.24
2022-10-07T19:18:11.573Z,40.60
2022-10-07T19:20:17.907Z,40.44
2022-10-07T19:22:21.693Z,39.57
2022-10-07T19:24:44.162Z,39.96
2022-10-07T19:26:49.980Z,39.01
2022-10-07T19:28:54.288Z,38.40
2022-10-07T19:31:02.553Z,38.30
2022-10-07T19:33:12.341Z,39.45
2022-10-07T19:35:19.025Z,38.65
2022-10-07T19:37:22.740Z,40.19
2022-10-07T19:39:26.948Z,38.92
2022-10-07T19:41:32.592Z,38.56
2022-10-07T19:43:39.127Z,38.51
2022-10-07T19:45:43.326Z,40.15
2022-10-07T19:47:47.156Z,38.39
2022-10-07T19:49:53.707Z,37.28
2022-10-07T19:51:57.496Z,37.34
2022-10-07T19:54:02.657Z,37.59
2022-10-07T19:56:11.399Z,37.27
2022-10-07T19:58:16.181Z,36.73
2022-10-07T20:00:19.870Z,36.23
2022-10-07T20:02:25.571Z,36.05
2022-10-07T20:04:29.298Z,36.45
2022-10-07T20:06:33.228Z,35.42
2022-10-07T20:08:37.897Z,34.71
2022-10-07T20:10:41.628Z,34.42
2022-10-07T20:12:45.683Z,34.22
2022-10-07T20:14:52.513Z,33.66
2022-10-07T20:16:57.296Z,33.96
2022-10-07T20:19:06.700Z,34.64
2022-10-07T20:21:16.979Z,34.38
2022-10-07T20:23:20.454Z,35.79
2022-10-07T20:25:25.386Z,35.17
2022-10-07T20:27:28.980Z,35.25
2022-10-07T20:29:32.864Z,34.69
2022-10-07T20:31:37.821Z,35.05
2022-10-07T20:33:45.631Z,35.16
2022-10-07T20:35:49.098Z,36.02
2022-10-07T20:37:52.866Z,36.13
2022-10-07T20:40:14.708Z,36.32
2022-10-07T20:42:26.429Z,36.31
2022-10-07T20:44:29.912Z,36.12
2022-10-07T20:46:36.287Z,35.94
2022-10-07T20:48:44.831Z,36.03
2022-10-07T20:50:49.918Z,35.10
2022-10-07T20:52:53.604Z,34.67
2022-10-07T20:54:57.400Z,34.08
2022-10-07T20:57:04.446Z,33.77
2022-10-07T20:59:09.344Z,33.77
2022-10-07T21:01:15.874Z,33.47
2022-10-07T21:03:19.695Z,33.87
2022-10-07T21:05:23.200Z,33.93
2022-10-07T21:07:27.171Z,33.48
2022-10-07T21:09:37.178Z,33.30
2022-10-07T21:11:41.035Z,33.49
2022-10-07T21:13:44.968Z,33.52
2022-10-07T21:15:48.644Z,33.50
2022-10-07T21:17:52.467Z,32.80
2022-10-07T21:19:57.169Z,32.58
2022-10-07T21:22:00.825Z,32.42
2022-10-07T21:24:04.522Z,32.66
2022-10-07T21:26:09.213Z,32.55
2022-10-07T21:28:16.255Z,32.45
2022-10-07T21:30:20.092Z,32.25
2022-10-07T21:32:23.781Z,31.89
2022-10-07T21:34:27.992Z,31.64
2022-10-07T21:36:31.522Z,30.78
2022-10-07T21:38:35.657Z,31.09
2022-10-07T21:40:41.315Z,30.77
2022-10-07T21:42:45.049Z,32.11
2022-10-07T21:44:48.600Z,30.78
2022-10-07T21:46:52.372Z,30.37
2022-10-07T21:48:57.190Z,29.33
2022-10-07T21:51:08.592Z,28.72
2022-10-07T21:53:14.214Z,28.72
2022-10-07T21:55:18.702Z,28.68
2022-10-07T21:57:22.633Z,28.30
2022-10-07T21:59:34.954Z,27.89
2022-10-07T22:01:39.800Z,27.93
2022-10-07T22:03:44.813Z,27.69
2022-10-07T22:05:50.437Z,27.86
2022-10-07T22:08:15.553Z,27.69
2022-10-07T22:10:19.247Z,27.27
2022-10-07T22:12:26.871Z,27.33
2022-10-07T22:14:30.813Z,27.85
2022-10-07T22:16:35.331Z,26.86
2022-10-07T22:18:38.854Z,27.17
2022-10-07T22:20:42.747Z,27.31
2022-10-07T22:22:46.435Z,27.35
2022-10-07T22:24:50.483Z,27.03
2022-10-07T22:26:56.753Z,27.31
2022-10-07T22:29:00.319Z,26.93
2022-10-07T22:31:07.624Z,26.90
2022-10-07T22:33:15.326Z,26.45
2022-10-07T22:35:33.390Z,26.88
2022-10-07T22:37:36.858Z,26.69
2022-10-07T22:39:40.168Z,26.58
2022-10-07T22:41:43.716Z,26.49
2022-10-07T22:43:48.305Z,26.69
2022-10-07T22:45:57.891Z,26.54
2022-10-07T22:48:01.603Z,26.91
2022-10-07T22:50:09.965Z,27.00
2022-10-07T22:52:13.560Z,27.42
2022-10-07T22:54:19.825Z,28.09
2022-10-07T22:56:24.868Z,28.10
2022-10-07T22:58:28.247Z,28.53
2022-10-07T23:00:31.865Z,28.82
2022-10-07T23:02:36.059Z,28.60
2022-10-07T23:04:42.852Z,28.78
2022-10-07T23:06:46.631Z,29.13
2022-10-07T23:08:50.207Z,29.01
2022-10-07T23:10:57.961Z,29.11
2022-10-07T23:13:01.701Z,29.49
2022-10-07T23:15:06.128Z,29.25
2022-10-07T23:17:11.412Z,29.49
2022-10-07T23:19:14.905Z,29.12
2022-10-07T23:21:20.054Z,29.21
2022-10-07T23:23:23.532Z,29.26
2022-10-07T23:25:27.428Z,29.43
2022-10-07T23:27:34.022Z,29.76
2022-10-07T23:29:38.216Z,29.67
2022-10-07T23:31:42.205Z,29.80
2022-10-07T23:33:48.298Z,29.87
2022-10-07T23:35:56.510Z,29.91
2022-10-07T23:38:01.486Z,29.96
2022-10-07T23:40:05.446Z,29.75
2022-10-07T23:42:09.131Z,29.74
2022-10-07T23:44:13.114Z,29.77
2022-10-07T23:46:16.604Z,29.80
2022-10-07T23:48:20.286Z,29.82
2022-10-07T23:50:24.889Z,30.04
2022-10-07T23:52:28.271Z,30.07
2022-10-07T23:54:34.708Z,29.89
2022-10-07T23:56:38.260Z,29.92
2022-10-07T23:58:41.730Z,29.90
